createdAt,value
2023-01-13T00:00:10.575Z,17.02
2023-01-13T00:02:37.156Z,17.67
2023-01-13T00:05:03.927Z,18.40
2023-01-13T00:07:30.454Z,18.92
2023-01-13T00:09:56.873Z,18.75
2023-01-13T00:12:23.325Z,19.13
2023-01-13T00:14:49.777Z,20.10
2023-01-13T00:17:16.261Z,22.08
2023-01-13T00:19:42.803Z,21.95
2023-01-13T00:22:09.584Z,21.13
2023-01-13T00:24:36.087Z,21.45
2023-01-13T00:27:02.541Z,20.60
2023-01-13T00:29:28.962Z,20.75
2023-01-13T00:31:55.544Z,20.63
2023-01-13T00:34:22.492Z,20.80
2023-01-13T00:36:48.928Z,20.85
2023-01-13T00:39:15.465Z,20.23
2023-01-13T00:42:00.254Z,20.13
2023-01-13T00:44:26.680Z,19.10
2023-01-13T00:46:53.488Z,20.85
2023-01-13T00:49:19.972Z,19.80
2023-01-13T00:51:46.408Z,19.48
2023-01-13T00:54:12.854Z,19.30
2023-01-13T00:56:40.996Z,19.77
2023-01-13T00:59:12.503Z,19.40
2023-01-13T01:01:39.559Z,18.98
2023-01-13T01:04:06.498Z,19.77
2023-01-13T01:06:32.980Z,19.08
2023-01-13T01:08:59.421Z,18.30
2023-01-13T01:11:30.719Z,21.13
2023-01-13T01:13:59.403Z,18.70
2023-01-13T01:16:28.503Z,20.00
2023-01-13T01:18:55.749Z,20.20
2023-01-13T01:21:24.671Z,19.08
2023-01-13T01:23:51.178Z,19.00
2023-01-13T01:26:24.850Z,18.17
2023-01-13T01:28:52.020Z,18.92
2023-01-13T01:31:24.863Z,19.48
2023-01-13T01:33:52.949Z,18.17
2023-01-13T01:36:21.505Z,19.33
2023-01-13T01:38:49.390Z,21.13
2023-01-13T01:41:19.619Z,24.50
2023-01-13T01:46:39.639Z,21.27
2023-01-13T01:49:24.484Z,20.60
2023-01-13T01:51:59.466Z,20.88
2023-01-13T01:54:31.591Z,21.23
2023-01-13T01:56:58.539Z,21.60
2023-01-13T01:59:27.735Z,27.17
2023-01-13T02:01:54.519Z,22.20
2023-01-13T02:04:26.638Z,24.85
2023-01-13T02:06:53.878Z,28.45
2023-01-13T02:09:20.393Z,31.00
2023-01-13T02:12:05.294Z,20.60
2023-01-13T02:14:33.864Z,22.17
2023-01-13T02:17:15.373Z,25.77
2023-01-13T02:20:18.889Z,27.77
2023-01-13T02:23:41.087Z,25.77
2023-01-13T02:26:10.367Z,25.95
2023-01-13T02:29:06.999Z,25.90
2023-01-13T02:31:43.079Z,26.02
2023-01-13T02:34:44.811Z,31.90
2023-01-13T02:37:19.533Z,29.88
2023-01-13T02:39:55.918Z,29.48
2023-01-13T02:42:50.448Z,29.73
2023-01-13T02:45:24.252Z,26.15
2023-01-13T02:47:55.773Z,39.10
2023-01-13T02:50:28.950Z,24.23
2023-01-13T02:53:17.807Z,30.40
2023-01-13T02:55:48.370Z,29.42
2023-01-13T02:58:18.853Z,32.95
2023-01-13T03:00:46.531Z,36.47
2023-01-13T03:03:13.679Z,34.42
2023-01-13T03:05:44.049Z,38.28
2023-01-13T03:08:42.988Z,32.78
2023-01-13T03:11:14.453Z,26.30
2023-01-13T03:13:41.552Z,27.83
2023-01-13T03:16:14.057Z,28.73
2023-01-13T03:18:59.208Z,37.30
2023-01-13T03:21:34.294Z,32.55
2023-01-13T03:24:19.562Z,27.00
2023-01-13T03:27:00.874Z,25.98
2023-01-13T03:30:00.714Z,30.02
2023-01-13T03:32:29.591Z,29.65
2023-01-13T03:35:03.751Z,26.50
2023-01-13T03:37:37.699Z,41.47
2023-01-13T03:40:10.897Z,30.00
2023-01-13T03:42:39.912Z,28.10
2023-01-13T03:45:17.239Z,34.28
2023-01-13T03:47:55.713Z,35.38
2023-01-13T03:50:27.748Z,33.33
2023-01-13T03:53:05.028Z,44.13
2023-01-13T03:55:38.255Z,31.08
2023-01-13T03:58:14.395Z,41.17
2023-01-13T04:01:02.974Z,42.03
2023-01-13T04:03:32.932Z,40.08
2023-01-13T04:06:13.466Z,46.35
2023-01-13T04:08:51.483Z,44.65
2023-01-13T04:11:25.220Z,47.20
2023-01-13T04:13:53.300Z,39.72
2023-01-13T04:16:19.847Z,48.10
2023-01-13T04:18:49.876Z,48.53
2023-01-13T04:21:16.351Z,31.67
2023-01-13T04:23:42.763Z,47.08
2023-01-13T04:26:09.344Z,50.25
2023-01-13T04:28:35.719Z,37.63
2023-01-13T04:31:02.212Z,38.05
2023-01-13T04:33:28.666Z,42.60
2023-01-13T04:35:55.198Z,38.30
2023-01-13T04:38:22.225Z,42.33
2023-01-13T04:40:48.994Z,45.55
2023-01-13T04:43:15.764Z,39.40
2023-01-13T04:45:43.168Z,46.42
2023-01-13T04:48:09.800Z,39.08
2023-01-13T04:50:36.626Z,33.92
2023-01-13T04:53:03.188Z,47.85
2023-01-13T04:55:29.905Z,40.95
2023-01-13T04:58:02.020Z,40.38
2023-01-13T05:00:28.421Z,43.03
2023-01-13T05:02:54.885Z,40.33
2023-01-13T05:05:21.377Z,41.03
2023-01-13T05:07:47.831Z,47.63
2023-01-13T05:10:14.344Z,36.10
2023-01-13T05:12:59.467Z,42.97
2023-01-13T05:15:44.426Z,43.90
2023-01-13T05:18:11.292Z,39.75
2023-01-13T05:20:37.802Z,34.83
2023-01-13T05:23:22.969Z,48.15
2023-01-13T05:25:49.634Z,38.22
2023-01-13T05:28:16.419Z,43.70
2023-01-13T05:30:46.199Z,41.30
2023-01-13T05:33:15.050Z,42.33
2023-01-13T05:35:42.874Z,47.67
2023-01-13T05:38:13.809Z,43.08
2023-01-13T05:40:59.705Z,40.08
2023-01-13T05:43:27.011Z,47.75
2023-01-13T05:45:53.517Z,40.88
2023-01-13T05:48:22.720Z,38.38
2023-01-13T05:50:50.191Z,44.10
2023-01-13T05:53:18.086Z,51.92
2023-01-13T05:55:45.288Z,45.45
2023-01-13T05:58:13.589Z,42.95
2023-01-13T06:00:41.840Z,40.45
2023-01-13T06:03:08.910Z,40.00
2023-01-13T06:05:35.544Z,37.53
2023-01-13T06:08:04.475Z,46.63
2023-01-13T06:10:31.404Z,44.03
2023-01-13T06:12:57.852Z,38.47
2023-01-13T06:15:24.802Z,43.50
2023-01-13T06:17:51.681Z,49.88
2023-01-13T06:20:18.965Z,42.03
2023-01-13T06:22:50.990Z,38.25
2023-01-13T06:25:29.637Z,44.78
2023-01-13T06:27:58.959Z,42.72
2023-01-13T06:30:29.347Z,43.90
2023-01-13T06:33:01.306Z,50.20
2023-01-13T06:35:33.320Z,53.55
2023-01-13T06:38:03.669Z,42.38
2023-01-13T06:40:30.374Z,48.30
2023-01-13T06:43:16.674Z,45.78
2023-01-13T06:45:50.792Z,40.50
2023-01-13T06:48:18.829Z,41.75
2023-01-13T06:50:45.310Z,43.95
2023-01-13T06:53:11.873Z,51.67
2023-01-13T06:55:38.287Z,47.58
2023-01-13T06:58:05.407Z,38.25
2023-01-13T07:00:32.963Z,43.55
2023-01-13T07:03:10.608Z,29.67
2023-01-13T07:05:39.676Z,41.42
2023-01-13T07:08:06.791Z,38.92
2023-01-13T07:10:33.856Z,39.53
2023-01-13T07:13:20.369Z,46.60
2023-01-13T07:15:57.946Z,42.83
2023-01-13T07:18:27.381Z,43.80
2023-01-13T07:21:02.433Z,42.17
2023-01-13T07:23:31.480Z,35.70
2023-01-13T07:25:59.344Z,45.88
2023-01-13T07:28:27.742Z,42.72
2023-01-13T07:30:54.362Z,40.10
2023-01-13T07:33:21.355Z,42.78
2023-01-13T07:35:48.923Z,48.95
2023-01-13T07:38:15.812Z,42.55
2023-01-13T07:40:42.235Z,38.42
2023-01-13T07:43:30.676Z,47.45
2023-01-13T07:45:58.765Z,47.80
2023-01-13T07:48:29.493Z,39.60
2023-01-13T07:50:55.997Z,51.50
2023-01-13T07:53:24.871Z,46.08
2023-01-13T07:55:54.808Z,48.15
2023-01-13T07:58:21.218Z,46.75
2023-01-13T08:00:47.744Z,47.33
2023-01-13T08:03:14.362Z,47.92
2023-01-13T08:05:41.265Z,45.20
2023-01-13T08:08:07.976Z,41.20
2023-01-13T08:10:34.576Z,44.65
2023-01-13T08:13:22.209Z,47.58
2023-01-13T08:15:50.796Z,35.65
2023-01-13T08:18:21.290Z,36.63
2023-01-13T08:20:54.862Z,39.42
2023-01-13T08:23:23.371Z,59.95
2023-01-13T08:25:50.130Z,40.38
2023-01-13T08:28:17.707Z,49.45
2023-01-13T08:30:44.430Z,54.45
2023-01-13T08:33:12.727Z,52.38
2023-01-13T08:35:40.605Z,40.95
2023-01-13T08:38:08.223Z,34.47
2023-01-13T08:40:35.019Z,38.90
2023-01-13T08:43:01.510Z,41.08
2023-01-13T08:45:28.112Z,45.60
2023-01-13T08:47:54.524Z,34.53
2023-01-13T08:50:20.994Z,33.63
2023-01-13T08:52:47.511Z,47.80
2023-01-13T08:55:14.107Z,49.28
2023-01-13T08:57:40.599Z,34.20
2023-01-13T09:00:08.283Z,35.85
2023-01-13T09:02:34.944Z,36.90
2023-01-13T09:05:03.876Z,33.53
2023-01-13T09:07:31.180Z,36.72
2023-01-13T09:09:57.799Z,36.05
2023-01-13T09:12:43.111Z,29.77
2023-01-13T09:15:10.432Z,36.60
2023-01-13T09:17:36.826Z,38.85
2023-01-13T09:20:03.884Z,40.33
2023-01-13T09:22:30.371Z,29.23
2023-01-13T09:24:57.008Z,29.85
2023-01-13T09:27:23.578Z,36.05
2023-01-13T09:29:50.330Z,33.95
2023-01-13T09:32:16.857Z,37.47
2023-01-13T09:35:01.850Z,31.05
2023-01-13T09:37:40.561Z,29.45
2023-01-13T09:40:15.279Z,29.08
2023-01-13T09:43:22.314Z,34.72
2023-01-13T09:46:00.562Z,31.42
2023-01-13T09:48:32.391Z,28.77
2023-01-13T09:51:09.932Z,25.60
2023-01-13T09:54:08.934Z,30.70
2023-01-13T09:56:35.325Z,28.75
2023-01-13T09:59:01.834Z,28.92
2023-01-13T10:01:36.678Z,29.33
2023-01-13T10:04:15.007Z,28.92
2023-01-13T10:06:47.132Z,22.00
2023-01-13T10:09:49.602Z,28.00
2023-01-13T10:12:45.337Z,32.78
2023-01-13T10:15:20.745Z,25.67
2023-01-13T10:18:03.902Z,29.63
2023-01-13T10:20:41.573Z,25.10
2023-01-13T10:23:08.240Z,29.45
2023-01-13T10:25:58.947Z,26.02
2023-01-13T10:28:26.446Z,24.05
2023-01-13T10:30:53.316Z,34.30
2023-01-13T10:33:28.053Z,20.60
2023-01-13T10:35:59.568Z,33.83
2023-01-13T10:38:30.945Z,27.40
2023-01-13T10:41:00.969Z,35.85
2023-01-13T10:43:29.321Z,30.52
2023-01-13T10:46:06.337Z,32.67
2023-01-13T10:48:38.103Z,30.90
2023-01-13T10:51:19.584Z,35.25
2023-01-13T10:53:55.746Z,30.00
2023-01-13T10:56:25.244Z,28.02
2023-01-13T10:58:51.681Z,31.40
2023-01-13T11:01:25.745Z,25.73
2023-01-13T11:03:56.127Z,36.17
2023-01-13T11:08:55.340Z,27.83
2023-01-13T11:11:27.203Z,29.10
2023-01-13T11:14:15.439Z,29.70
2023-01-13T11:16:53.054Z,28.17
2023-01-13T11:19:22.835Z,32.70
2023-01-13T11:22:07.381Z,32.47
2023-01-13T11:25:04.484Z,26.40
2023-01-13T11:27:41.975Z,21.48
2023-01-13T11:30:30.283Z,23.50
2023-01-13T11:33:15.156Z,22.67
2023-01-13T11:36:05.265Z,19.90
2023-01-13T11:38:47.781Z,21.73
2023-01-13T11:41:19.469Z,21.23
2023-01-13T11:43:52.248Z,15.93
2023-01-13T11:46:19.731Z,26.08
2023-01-13T11:48:46.257Z,21.83
2023-01-13T11:51:16.210Z,24.33
2023-01-13T11:53:52.874Z,18.98
2023-01-13T11:56:39.391Z,21.60
2023-01-13T11:59:36.364Z,25.25
2023-01-13T12:02:23.553Z,28.30
2023-01-13T12:05:14.263Z,23.90
2023-01-13T12:08:03.369Z,27.52
2023-01-13T12:10:40.756Z,15.40
2023-01-13T12:13:22.244Z,32.00
2023-01-13T12:16:15.790Z,21.60
2023-01-13T12:19:10.336Z,25.92
2023-01-13T12:21:56.575Z,27.67
2023-01-13T12:24:29.883Z,25.02
2023-01-13T12:27:31.813Z,27.08
2023-01-13T12:30:02.603Z,28.55
2023-01-13T12:32:36.240Z,29.73
2023-01-13T12:35:33.696Z,32.72
2023-01-13T12:38:24.473Z,25.40
2023-01-13T12:41:12.187Z,39.95
2023-01-13T12:44:16.563Z,26.63
2023-01-13T12:46:50.447Z,31.23
2023-01-13T12:49:23.375Z,34.17
2023-01-13T12:51:52.742Z,35.00
2023-01-13T12:54:37.646Z,30.53
2023-01-13T12:57:16.290Z,37.65
2023-01-13T13:00:06.330Z,33.22
2023-01-13T13:02:37.920Z,31.05
2023-01-13T13:05:22.589Z,37.85
2023-01-13T13:08:11.947Z,36.05
2023-01-13T13:10:45.185Z,34.47
2023-01-13T13:13:41.699Z,27.70
2023-01-13T13:16:26.468Z,32.15
2023-01-13T13:19:13.406Z,36.45
2023-01-13T13:22:18.025Z,25.80
2023-01-13T13:25:04.325Z,27.98
2023-01-13T13:28:09.054Z,23.00
2023-01-13T13:30:46.235Z,20.58
2023-01-13T13:33:39.510Z,20.67
2023-01-13T13:36:44.221Z,24.08
2023-01-13T13:39:40.797Z,20.38
2023-01-13T13:42:36.765Z,21.85
2023-01-13T13:45:33.517Z,17.42
2023-01-13T13:48:00.989Z,17.05
2023-01-13T13:50:30.299Z,25.05
2023-01-13T13:53:05.350Z,23.57
2023-01-13T13:55:32.791Z,23.85
2023-01-13T13:58:01.592Z,23.23
2023-01-13T14:00:37.938Z,26.48
2023-01-13T14:03:20.776Z,31.15
2023-01-13T14:06:00.924Z,21.73
2023-01-13T14:08:33.240Z,30.15
2023-01-13T14:10:59.861Z,27.95
2023-01-13T14:13:29.378Z,35.10
2023-01-13T14:16:01.807Z,42.78
2023-01-13T14:18:30.659Z,35.05
2023-01-13T14:21:19.533Z,36.35
2023-01-13T14:24:14.039Z,33.88
2023-01-13T14:26:41.133Z,39.40
2023-01-13T14:29:13.369Z,36.40
2023-01-13T14:31:40.336Z,31.45
2023-01-13T14:34:32.240Z,29.92
2023-01-13T14:36:54.915Z,35.88
2023-01-13T14:39:26.090Z,29.60
2023-01-13T14:41:53.395Z,37.65
2023-01-13T14:44:36.372Z,31.42
2023-01-13T14:47:17.183Z,31.45
2023-01-13T14:49:56.830Z,27.02
2023-01-13T14:52:24.885Z,25.85
2023-01-13T14:54:54.665Z,31.83
2023-01-13T14:57:33.321Z,25.30
2023-01-13T15:00:15.055Z,29.33
2023-01-13T15:02:44.569Z,36.00
2023-01-13T15:05:17.083Z,37.33
2023-01-13T15:08:05.592Z,30.40
2023-01-13T15:10:38.027Z,37.28
2023-01-13T15:13:06.778Z,30.52
2023-01-13T15:15:36.040Z,33.72
2023-01-13T15:18:15.145Z,32.50
2023-01-13T15:20:42.356Z,34.08
2023-01-13T15:23:09.403Z,29.92
2023-01-13T15:25:38.493Z,31.23
2023-01-13T15:28:07.316Z,34.17
2023-01-13T15:30:34.263Z,29.08
2023-01-13T15:33:00.736Z,29.00
2023-01-13T15:35:28.840Z,30.52
2023-01-13T15:37:56.913Z,28.05
2023-01-13T15:40:32.301Z,28.05
2023-01-13T15:43:17.080Z,28.05
2023-01-13T15:46:02.475Z,27.85
2023-01-13T15:48:33.690Z,28.35
2023-01-13T15:51:02.331Z,27.60
2023-01-13T15:53:29.654Z,27.23
2023-01-13T15:55:58.983Z,28.90
2023-01-13T15:58:28.440Z,29.03
2023-01-13T16:00:55.607Z,27.60
2023-01-13T16:03:22.259Z,27.92
2023-01-13T16:05:49.545Z,28.27
2023-01-13T16:08:17.841Z,48.63
2023-01-13T16:10:44.947Z,64.68
2023-01-13T16:13:12.791Z,38.35
2023-01-13T16:15:45.543Z,27.77
2023-01-13T16:18:25.824Z,30.75
2023-01-13T16:23:20.523Z,32.50
2023-01-13T16:25:47.612Z,32.55
2023-01-13T16:28:20.729Z,31.00
2023-01-13T16:30:47.912Z,31.48
2023-01-13T16:33:14.668Z,29.38
2023-01-13T16:36:08.732Z,26.17
2023-01-13T16:38:27.705Z,25.42
2023-01-13T16:40:57.054Z,30.20
2023-01-13T16:43:23.581Z,29.17
2023-01-13T16:45:50.095Z,29.58
2023-01-13T16:48:20.162Z,31.42
2023-01-13T16:50:46.819Z,28.65
2023-01-13T16:53:13.279Z,32.00
2023-01-13T16:55:41.517Z,32.85
2023-01-13T16:58:18.309Z,36.35
2023-01-13T17:00:46.906Z,30.25
2023-01-13T17:03:17.211Z,29.42
2023-01-13T17:08:17.570Z,29.20
2023-01-13T17:10:45.064Z,32.92
2023-01-13T17:13:16.417Z,30.02
2023-01-13T17:15:43.639Z,33.30
2023-01-13T17:18:11.460Z,31.50
2023-01-13T17:20:37.904Z,31.92
2023-01-13T17:23:04.365Z,47.15
2023-01-13T17:25:30.760Z,29.38
2023-01-13T17:27:58.455Z,30.30
2023-01-13T17:30:25.017Z,37.78
2023-01-13T17:32:51.497Z,28.73
2023-01-13T17:35:22.802Z,31.13
2023-01-13T17:37:49.197Z,29.30
2023-01-13T17:40:16.094Z,38.03
2023-01-13T17:42:42.690Z,35.75
2023-01-13T17:45:11.424Z,37.00
2023-01-13T17:47:38.403Z,29.17
2023-01-13T17:50:05.717Z,22.95
2023-01-13T17:52:33.692Z,25.75
2023-01-13T17:55:00.114Z,31.77
2023-01-13T17:57:26.531Z,29.55
2023-01-13T17:59:52.956Z,30.23
2023-01-13T18:02:19.600Z,29.48
2023-01-13T18:04:46.126Z,27.33
2023-01-13T18:07:12.564Z,44.38
2023-01-13T18:09:39.155Z,41.15
2023-01-13T18:12:05.855Z,38.58
2023-01-13T18:14:32.380Z,29.05
2023-01-13T18:16:58.813Z,30.55
2023-01-13T18:19:43.922Z,28.50
2023-01-13T18:22:32.327Z,34.65
2023-01-13T18:25:17.195Z,26.90
2023-01-13T18:27:43.619Z,28.83
2023-01-13T18:30:12.383Z,33.92
2023-01-13T18:32:38.837Z,27.27
2023-01-13T18:35:10.087Z,27.25
2023-01-13T18:37:39.943Z,32.10
2023-01-13T18:40:09.202Z,33.97
2023-01-13T18:42:51.470Z,27.03
2023-01-13T18:45:27.548Z,23.98
2023-01-13T18:47:58.406Z,26.92
2023-01-13T18:50:25.818Z,27.60
2023-01-13T18:52:52.665Z,26.15
2023-01-13T18:55:19.452Z,28.00
2023-01-13T18:57:46.040Z,27.50
2023-01-13T19:00:17.257Z,29.10
2023-01-13T19:02:44.858Z,26.50
2023-01-13T19:05:11.478Z,26.35
2023-01-13T19:07:38.328Z,32.25
2023-01-13T19:10:08.082Z,28.25
2023-01-13T19:12:34.453Z,29.08
2023-01-13T19:15:02.228Z,28.95
2023-01-13T19:17:34.174Z,28.55
2023-01-13T19:20:01.158Z,28.20
2023-01-13T19:22:33.436Z,26.80
2023-01-13T19:25:01.466Z,29.10
2023-01-13T19:27:28.935Z,30.55
2023-01-13T19:29:58.579Z,31.38
2023-01-13T19:32:25.874Z,34.22
2023-01-13T19:34:54.827Z,35.63
2023-01-13T19:37:21.368Z,33.08
2023-01-13T19:39:47.796Z,36.85
2023-01-13T19:42:32.518Z,31.77
2023-01-13T19:45:17.959Z,32.03
2023-01-13T19:47:45.916Z,31.70
2023-01-13T19:50:13.937Z,32.85
2023-01-13T19:52:41.640Z,33.20
2023-01-13T19:55:09.777Z,33.53
2023-01-13T19:57:36.985Z,32.90
2023-01-13T20:00:06.473Z,30.83
2023-01-13T20:02:32.983Z,29.55
2023-01-13T20:05:01.883Z,29.75
2023-01-13T20:07:30.508Z,36.83
2023-01-13T20:09:57.582Z,28.70
2023-01-13T20:12:25.211Z,27.48
2023-01-13T20:14:52.453Z,27.52
2023-01-13T20:17:21.501Z,26.67
2023-01-13T20:19:48.139Z,28.38
2023-01-13T20:22:14.870Z,26.27
2023-01-13T20:24:41.471Z,25.38
2023-01-13T20:27:07.953Z,23.98
2023-01-13T20:29:34.638Z,27.83
2023-01-13T20:32:01.518Z,22.88
2023-01-13T20:34:28.301Z,22.95
2023-01-13T20:36:54.811Z,21.65
2023-01-13T20:39:25.360Z,25.10
2023-01-13T20:42:10.230Z,21.27
2023-01-13T20:44:36.724Z,25.25
2023-01-13T20:47:03.619Z,24.63
2023-01-13T20:49:30.463Z,21.70
2023-01-13T20:51:57.523Z,25.02
2023-01-13T20:54:24.632Z,22.90
2023-01-13T20:56:51.399Z,24.77
2023-01-13T20:59:17.843Z,21.65
2023-01-13T21:01:44.344Z,20.45
2023-01-13T21:04:10.936Z,22.63
2023-01-13T21:06:37.614Z,20.92
2023-01-13T21:09:04.206Z,22.90
2023-01-13T21:11:48.987Z,24.45
2023-01-13T21:14:42.944Z,28.95
2023-01-13T21:17:31.454Z,24.38
2023-01-13T21:19:57.883Z,19.50
2023-01-13T21:22:24.636Z,23.70
2023-01-13T21:24:51.142Z,21.98
2023-01-13T21:27:17.661Z,24.25
2023-01-13T21:29:44.585Z,23.83
2023-01-13T21:32:12.310Z,24.50
2023-01-13T21:34:38.748Z,22.52
2023-01-13T21:37:05.228Z,27.10
2023-01-13T21:39:31.649Z,15.52
2023-01-13T21:42:16.506Z,18.60
2023-01-13T21:45:01.687Z,21.83
2023-01-13T21:47:46.447Z,21.58
2023-01-13T21:50:14.291Z,26.17
2023-01-13T21:52:42.665Z,16.92
2023-01-13T21:55:29.387Z,23.83
2023-01-13T21:57:58.287Z,25.98
2023-01-13T22:00:27.541Z,27.60
2023-01-13T22:02:54.550Z,24.20
2023-01-13T22:05:27.442Z,29.30
2023-01-13T22:07:54.019Z,31.17
2023-01-13T22:10:22.996Z,23.92
2023-01-13T22:12:53.216Z,25.00
2023-01-13T22:17:49.706Z,27.38
2023-01-13T22:20:16.836Z,33.88
2023-01-13T22:22:43.242Z,35.90
2023-01-13T22:25:12.691Z,36.20
2023-01-13T22:27:40.673Z,33.75
2023-01-13T22:30:14.183Z,38.42
2023-01-13T22:32:40.609Z,39.72
2023-01-13T22:35:08.918Z,28.67
2023-01-13T22:37:36.472Z,39.33
2023-01-13T22:40:04.958Z,37.63
2023-01-13T22:42:31.561Z,33.75
2023-01-13T22:44:57.956Z,38.15
2023-01-13T22:47:24.408Z,37.15
2023-01-13T22:49:50.855Z,38.67
2023-01-13T22:52:17.685Z,33.45
2023-01-13T22:54:44.166Z,38.28
2023-01-13T22:57:10.648Z,35.45
2023-01-13T22:59:37.167Z,30.60
2023-01-13T23:02:03.693Z,30.77
2023-01-13T23:04:30.161Z,39.65
2023-01-13T23:06:56.639Z,42.13
2023-01-13T23:09:23.092Z,36.00
2023-01-13T23:11:49.527Z,34.20
2023-01-13T23:14:15.963Z,34.40
2023-01-13T23:16:42.775Z,37.08
2023-01-13T23:19:10.863Z,41.30
2023-01-13T23:21:37.995Z,31.98
2023-01-13T23:24:05.737Z,42.83
2023-01-13T23:26:33.417Z,38.47
2023-01-13T23:29:01.715Z,38.58
2023-01-13T23:31:28.302Z,40.90
2023-01-13T23:33:54.751Z,41.67
2023-01-13T23:36:23.835Z,35.42
2023-01-13T23:38:51.448Z,38.33
2023-01-13T23:41:21.913Z,30.60
2023-01-13T23:43:53.589Z,31.33
2023-01-13T23:46:20.661Z,33.20
2023-01-13T23:48:47.356Z,37.70
2023-01-13T23:51:14.468Z,39.60
2023-01-13T23:53:43.953Z,28.45
2023-01-13T23:56:13.871Z,31.95
2023-01-13T23:58:40.926Z,34.92
